createdAt,value
2018-06-01T00:01:34.535Z,65.98
2018-06-01T00:04:02.186Z,65.93
2018-06-01T00:06:29.884Z,65.86
2018-06-01T00:08:57.568Z,65.70
2018-06-01T00:11:25.395Z,66.13
2018-06-01T00:13:53.069Z,66.31
2018-06-01T00:16:20.715Z,66.27
2018-06-01T00:18:48.289Z,66.16
2018-06-01T00:21:15.922Z,66.22
2018-06-01T00:23:43.546Z,66.23
2018-06-01T00:26:11.113Z,66.18
2018-06-01T00:28:38.682Z,66.17
2018-06-01T00:31:07.348Z,66.08
2018-06-01T00:33:36.380Z,66.47
2018-06-01T00:36:04.088Z,66.61
2018-06-01T00:38:31.735Z,66.50
2018-06-01T00:40:59.413Z,66.50
2018-06-01T00:43:27.366Z,66.46
2018-06-01T00:45:55.129Z,66.39
2018-06-01T00:48:22.904Z,66.28
2018-06-01T00:50:50.727Z,66.55
2018-06-01T00:53:20.405Z,66.67
2018-06-01T00:55:48.113Z,66.61
2018-06-01T00:58:15.756Z,66.58
2018-06-01T01:00:43.440Z,66.79
2018-06-01T01:03:11.962Z,67.15
2018-06-01T01:05:39.718Z,67.16
2018-06-01T01:08:08.414Z,67.23
2018-06-01T01:10:36.128Z,67.24
2018-06-01T01:13:03.785Z,67.26
2018-06-01T01:15:31.482Z,67.24
2018-06-01T01:17:59.188Z,67.26
2018-06-01T01:20:26.820Z,67.16
2018-06-01T01:22:54.429Z,67.05
2018-06-01T01:25:22.088Z,66.95
2018-06-01T01:27:49.617Z,66.98
2018-06-01T01:30:17.180Z,67.23
2018-06-01T01:32:44.718Z,67.77
2018-06-01T01:35:13.238Z,68.08
2018-06-01T01:37:40.883Z,68.18
2018-06-01T01:40:08.449Z,68.18
2018-06-01T01:42:36.027Z,68.32
2018-06-01T01:45:03.670Z,68.32
2018-06-01T01:47:31.239Z,68.12
2018-06-01T01:49:58.760Z,68.02
2018-06-01T01:52:26.380Z,67.94
2018-06-01T01:54:54.040Z,67.74
2018-06-01T01:57:21.619Z,68.16
2018-06-01T01:59:49.224Z,68.42
2018-06-01T02:02:17.329Z,68.49
2018-06-01T02:04:45.005Z,68.48
2018-06-01T02:07:12.756Z,68.37
2018-06-01T02:09:40.285Z,68.28
2018-06-01T02:12:07.901Z,68.12
2018-06-01T02:14:35.588Z,68.23
2018-06-01T02:17:03.347Z,67.94
2018-06-01T02:19:31.222Z,67.84
2018-06-01T02:21:58.998Z,67.35
2018-06-01T02:24:26.655Z,67.42
2018-06-01T02:26:54.274Z,67.45
2018-06-01T02:29:24.060Z,68.05
2018-06-01T02:31:51.605Z,68.04
2018-06-01T02:34:19.144Z,67.89
2018-06-01T02:36:46.685Z,68.11
2018-06-01T02:39:14.300Z,68.15
2018-06-01T02:41:41.868Z,68.14
2018-06-01T02:44:09.400Z,68.11
2018-06-01T02:46:36.955Z,68.02
2018-06-01T02:49:04.561Z,67.98
2018-06-01T02:51:32.278Z,68.03
2018-06-01T02:54:00.009Z,67.96
2018-06-01T02:56:27.557Z,68.07
2018-06-01T02:58:55.092Z,68.40
2018-06-01T03:01:22.672Z,68.47
2018-06-01T03:03:50.245Z,68.80
2018-06-01T03:06:18.477Z,68.83
2018-06-01T03:08:46.023Z,68.70
2018-06-01T03:11:13.671Z,68.35
2018-06-01T03:13:41.337Z,68.46
2018-06-01T03:16:08.891Z,68.13
2018-06-01T03:18:36.450Z,68.04
2018-06-01T03:21:04.033Z,68.15
2018-06-01T03:23:31.614Z,68.06
2018-06-01T03:25:59.246Z,67.86
2018-06-01T03:28:26.848Z,68.06
2018-06-01T03:30:54.525Z,68.61
2018-06-01T03:33:22.070Z,69.06
2018-06-01T03:35:49.707Z,69.33
2018-06-01T03:38:17.233Z,69.33
2018-06-01T03:40:44.789Z,69.20
2018-06-01T03:43:15.206Z,68.81
2018-06-01T03:45:42.843Z,68.67
2018-06-01T03:48:10.694Z,68.44
2018-06-01T03:50:38.321Z,68.26
2018-06-01T03:53:05.899Z,67.70
2018-06-01T03:55:33.640Z,67.81
2018-06-01T03:58:01.226Z,67.73
2018-06-01T04:00:28.781Z,68.34
2018-06-01T04:02:56.714Z,68.52
2018-06-01T04:05:24.372Z,68.64
2018-06-01T04:07:52.031Z,68.06
2018-06-01T04:10:19.700Z,68.32
2018-06-01T04:12:47.319Z,68.24
2018-06-01T04:15:15.068Z,67.86
2018-06-01T04:17:42.714Z,67.74
2018-06-01T04:20:10.328Z,67.69
2018-06-01T04:22:37.957Z,67.52
2018-06-01T04:25:05.570Z,67.39
2018-06-01T04:27:33.152Z,67.08
2018-06-01T04:30:00.676Z,66.76
2018-06-01T04:32:28.269Z,66.41
2018-06-01T04:34:55.827Z,66.81
2018-06-01T04:37:23.428Z,66.88
2018-06-01T04:39:51.036Z,66.79
2018-06-01T04:42:19.476Z,66.86
2018-06-01T04:44:47.163Z,66.58
2018-06-01T04:47:14.983Z,66.57
2018-06-01T04:49:42.591Z,66.43
2018-06-01T04:52:10.250Z,66.02
2018-06-01T04:54:37.980Z,66.09
2018-06-01T04:57:05.644Z,65.95
2018-06-01T04:59:34.243Z,65.84
2018-06-01T05:02:02.128Z,66.22
2018-06-01T05:04:29.908Z,66.52
2018-06-01T05:06:57.582Z,66.95
2018-06-01T05:11:59.014Z,67.85
2018-06-01T05:14:26.710Z,68.42
2018-06-01T05:16:54.371Z,68.72
2018-06-01T05:19:22.208Z,68.81
2018-06-01T05:24:23.800Z,68.38
2018-06-01T05:26:51.475Z,68.38
2018-06-01T05:29:19.117Z,68.36
2018-06-01T05:31:46.768Z,68.28
2018-06-01T05:34:14.441Z,68.37
2018-06-01T05:36:42.108Z,68.19
2018-06-01T05:39:10.654Z,68.26
2018-06-01T05:41:38.307Z,67.94
2018-06-01T05:44:05.952Z,67.31
2018-06-01T05:46:35.300Z,66.72
2018-06-01T05:49:02.896Z,66.01
2018-06-01T05:51:30.479Z,65.24
2018-06-01T05:53:58.188Z,64.69
2018-06-01T05:56:25.908Z,64.23
2018-06-01T05:58:53.575Z,62.50
2018-06-01T06:01:21.441Z,62.64
2018-06-01T06:03:49.143Z,61.66
2018-06-01T06:06:16.756Z,61.18
2018-06-01T06:08:44.402Z,61.04
2018-06-01T06:11:11.978Z,60.29
2018-06-01T06:13:40.671Z,59.34
2018-06-01T06:16:08.370Z,59.95
2018-06-01T06:18:36.036Z,59.67
2018-06-01T06:21:03.681Z,59.41
2018-06-01T06:23:31.267Z,59.98
2018-06-01T06:25:58.935Z,59.91
2018-06-01T06:28:26.630Z,59.93
2018-06-01T06:30:54.281Z,59.43
2018-06-01T06:33:22.002Z,59.84
2018-06-01T06:35:49.665Z,59.74
2018-06-01T06:38:17.344Z,58.89
2018-06-01T06:40:44.964Z,58.38
2018-06-01T06:43:12.791Z,58.80
2018-06-01T06:45:41.349Z,58.14
2018-06-01T06:50:36.131Z,60.02
2018-06-01T06:53:03.868Z,58.68
2018-06-01T06:58:06.502Z,58.88
2018-06-01T07:00:34.567Z,58.89
2018-06-01T07:03:02.090Z,60.31
2018-06-01T07:05:29.658Z,60.88
2018-06-01T07:07:57.309Z,60.28
2018-06-01T07:10:25.722Z,60.98
2018-06-01T07:12:53.418Z,61.70
2018-06-01T07:15:22.207Z,61.44
2018-06-01T07:17:49.974Z,61.80
2018-06-01T07:20:17.753Z,61.93
2018-06-01T07:22:45.958Z,62.22
2018-06-01T07:25:13.745Z,62.57
2018-06-01T07:27:41.344Z,62.08
2018-06-01T07:30:08.991Z,61.85
2018-06-01T07:32:36.537Z,62.76
2018-06-01T07:35:04.126Z,62.53
2018-06-01T07:37:32.652Z,62.16
2018-06-01T07:40:00.230Z,62.84
2018-06-01T07:42:28.029Z,63.16
2018-06-01T07:44:55.772Z,63.01
2018-06-01T07:47:23.483Z,63.61
2018-06-01T07:49:51.264Z,63.11
2018-06-01T07:52:18.976Z,62.80
2018-06-01T07:54:46.698Z,62.51
2018-06-01T07:57:14.386Z,61.87
2018-06-01T07:59:41.970Z,60.99
2018-06-01T08:02:09.802Z,60.22
2018-06-01T08:04:37.806Z,60.42
2018-06-01T08:07:05.597Z,60.32
2018-06-01T08:09:34.745Z,60.63
2018-06-01T08:12:02.439Z,61.31
2018-06-01T08:14:30.720Z,61.16
2018-06-01T08:16:59.611Z,61.34
2018-06-01T08:19:28.337Z,60.90
2018-06-01T08:21:55.908Z,60.32
2018-06-01T08:24:23.606Z,60.19
2018-06-01T08:26:55.027Z,59.21
2018-06-01T08:29:24.083Z,59.58
2018-06-01T08:31:52.740Z,60.42
2018-06-01T08:34:20.866Z,59.50
2018-06-01T08:36:52.263Z,60.21
2018-06-01T08:42:00.032Z,59.87
2018-06-01T08:44:28.234Z,59.75
2018-06-01T08:46:55.921Z,59.41
2018-06-01T08:49:25.852Z,60.46
2018-06-01T08:51:53.627Z,60.91
2018-06-01T08:54:21.369Z,60.10
2018-06-01T08:56:49.064Z,60.47
2018-06-01T08:59:21.286Z,59.63
2018-06-01T09:01:48.909Z,60.67
2018-06-01T09:04:16.630Z,60.52
2018-06-01T09:06:44.277Z,60.90
2018-06-01T09:09:14.973Z,61.31
2018-06-01T09:11:42.653Z,60.57
2018-06-01T09:14:13.895Z,60.71
2018-06-01T09:16:47.735Z,61.29
2018-06-01T09:19:15.339Z,61.28
2018-06-01T09:21:44.752Z,61.77
2018-06-01T09:24:12.463Z,60.65
2018-06-01T09:26:42.681Z,60.49
2018-06-01T09:29:10.596Z,60.38
2018-06-01T09:31:43.406Z,60.13
2018-06-01T09:34:12.514Z,59.90
2018-06-01T09:36:43.348Z,60.01
2018-06-01T09:39:12.359Z,59.85
2018-06-01T09:41:45.096Z,59.60
2018-06-01T09:44:13.184Z,59.91
2018-06-01T09:46:41.741Z,60.29
2018-06-01T09:52:26.177Z,59.91
2018-06-01T09:54:54.850Z,59.94
2018-06-01T09:57:22.967Z,59.69
2018-06-01T09:59:51.480Z,59.27
2018-06-01T10:02:21.333Z,58.18
2018-06-01T10:04:49.075Z,57.66
2018-06-01T10:07:16.829Z,58.00
2018-06-01T10:12:29.987Z,55.79
2018-06-01T10:14:57.712Z,56.35
2018-06-01T10:17:27.221Z,56.40
2018-06-01T10:19:56.233Z,56.14
2018-06-01T10:22:28.354Z,56.27
2018-06-01T10:25:05.420Z,55.26
2018-06-01T10:27:36.382Z,55.31
2018-06-01T10:30:05.639Z,55.17
2018-06-01T10:32:34.633Z,54.94
2018-06-01T10:35:03.646Z,54.53
2018-06-01T10:37:33.605Z,55.31
2018-06-01T10:40:06.768Z,54.44
2018-06-01T10:45:31.487Z,55.96
2018-06-01T10:48:07.069Z,55.47
2018-06-01T10:50:37.623Z,56.14
2018-06-01T10:53:09.130Z,55.27
2018-06-01T10:55:41.633Z,55.08
2018-06-01T10:58:09.527Z,53.71
2018-06-01T11:00:44.895Z,52.83
2018-06-01T11:03:43.262Z,52.78
2018-06-01T11:06:16.203Z,51.92
2018-06-01T11:08:44.063Z,51.61
2018-06-01T11:11:13.831Z,51.59
2018-06-01T11:13:46.479Z,52.39
2018-06-01T11:16:14.215Z,51.69
2018-06-01T11:18:48.721Z,50.95
2018-06-01T11:21:18.544Z,51.89
2018-06-01T11:23:48.537Z,51.44
2018-06-01T11:26:17.454Z,50.46
2018-06-01T11:28:48.865Z,51.50
2018-06-01T11:31:19.669Z,51.82
2018-06-01T11:33:52.045Z,51.58
2018-06-01T11:36:36.116Z,52.13
2018-06-01T11:39:25.140Z,51.04
2018-06-01T11:42:01.837Z,51.71
2018-06-01T11:44:36.060Z,52.36
2018-06-01T11:47:16.027Z,51.06
2018-06-01T11:49:43.859Z,51.24
2018-06-01T11:52:21.710Z,51.48
2018-06-01T11:57:57.404Z,51.04
2018-06-01T12:00:42.631Z,51.72
2018-06-01T12:03:14.467Z,51.84
2018-06-01T12:05:44.712Z,48.99
2018-06-01T12:08:16.106Z,49.41
2018-06-01T12:10:53.252Z,50.96
2018-06-01T12:18:25.843Z,51.71
2018-06-01T12:20:59.891Z,49.77
2018-06-01T12:23:36.189Z,48.59
2018-06-01T12:26:05.846Z,48.55
2018-06-01T12:28:56.208Z,47.68
2018-06-01T12:36:42.854Z,47.23
2018-06-01T12:39:20.381Z,47.56
2018-06-01T12:41:50.988Z,48.03
2018-06-01T12:44:22.731Z,48.56
2018-06-01T12:46:57.385Z,48.61
2018-06-01T12:56:28.994Z,48.06
2018-06-01T12:58:59.137Z,47.90
2018-06-01T13:01:35.316Z,48.08
2018-06-01T13:06:45.261Z,47.16
2018-06-01T13:09:19.565Z,46.20
2018-06-01T13:11:55.096Z,46.14
2018-06-01T13:17:37.027Z,45.92
2018-06-01T13:20:05.840Z,46.33
2018-06-01T13:22:50.412Z,46.31
2018-06-01T13:28:12.526Z,49.55
2018-06-01T13:30:51.346Z,48.73
2018-06-01T13:36:26.727Z,47.92
2018-06-01T13:47:16.333Z,46.14
2018-06-01T13:50:00.473Z,45.98
2018-06-01T14:02:01.646Z,48.47
2018-06-01T14:04:41.096Z,48.38
2018-06-01T14:07:28.794Z,48.12
2018-06-01T14:10:22.343Z,47.66
2018-06-01T14:21:31.353Z,47.49
2018-06-01T14:29:25.234Z,49.09
2018-06-01T14:32:02.619Z,48.67
2018-06-01T14:34:35.182Z,47.41
2018-06-01T14:39:51.511Z,46.96
2018-06-01T14:42:26.347Z,46.48
2018-06-01T14:44:56.730Z,46.28
2018-06-01T14:47:35.034Z,46.35
2018-06-01T14:50:09.424Z,46.43
2018-06-01T14:52:39.400Z,45.92
2018-06-01T14:55:29.720Z,45.23
2018-06-01T14:58:07.692Z,44.35
2018-06-01T15:00:38.380Z,44.82
2018-06-01T15:03:12.927Z,44.62
2018-06-01T15:05:46.391Z,44.05
2018-06-01T15:08:15.088Z,44.44
2018-06-01T15:10:44.871Z,44.23
2018-06-01T15:13:12.528Z,43.01
2018-06-01T15:15:40.218Z,43.73
2018-06-01T15:18:09.153Z,44.08
2018-06-01T15:20:37.755Z,45.05
2018-06-01T15:23:06.305Z,45.10
2018-06-01T15:28:10.338Z,44.63
2018-06-01T15:30:39.016Z,45.05
2018-06-01T15:33:06.929Z,45.28
2018-06-01T15:35:38.628Z,45.40
2018-06-01T15:38:15.980Z,46.12
2018-06-01T15:40:46.561Z,46.24
2018-06-01T15:43:21.280Z,46.06
2018-06-01T15:45:56.372Z,45.16
2018-06-01T15:48:31.067Z,45.37
2018-06-01T15:50:59.462Z,45.09
2018-06-01T15:53:42.967Z,45.24
2018-06-01T15:56:31.880Z,45.76
2018-06-01T15:59:11.232Z,45.43
2018-06-01T16:01:45.080Z,45.60
2018-06-01T16:04:16.630Z,45.38
2018-06-01T16:06:47.380Z,44.10
2018-06-01T16:09:17.730Z,44.53
2018-06-01T16:11:52.984Z,45.12
2018-06-01T16:14:24.384Z,45.56
2018-06-01T16:17:00.424Z,44.51
2018-06-01T16:19:30.905Z,45.35
2018-06-01T16:24:51.082Z,45.57
2018-06-01T16:27:22.817Z,45.37
2018-06-01T16:30:09.321Z,45.66
2018-06-01T16:32:40.626Z,45.56
2018-06-01T16:35:17.073Z,45.55
2018-06-01T16:37:48.837Z,45.93
2018-06-01T16:40:22.927Z,46.16
2018-06-01T16:42:53.139Z,46.23
2018-06-01T16:45:26.894Z,46.35
2018-06-01T16:47:56.420Z,45.80
2018-06-01T16:52:58.864Z,46.98
2018-06-01T16:55:29.480Z,46.83
2018-06-01T16:58:02.268Z,46.91
2018-06-01T17:00:38.001Z,46.54
2018-06-01T17:03:09.556Z,46.82
2018-06-01T17:05:43.414Z,47.35
2018-06-01T17:10:52.576Z,47.41
2018-06-01T17:13:21.779Z,47.97
2018-06-01T17:15:51.434Z,48.07
2018-06-01T17:18:27.048Z,47.80
2018-06-01T17:21:00.102Z,47.01
2018-06-01T17:23:28.362Z,47.37
2018-06-01T17:26:02.035Z,47.66
2018-06-01T17:28:38.817Z,48.38
2018-06-01T17:31:17.934Z,48.08
2018-06-01T17:33:50.819Z,48.35
2018-06-01T17:36:29.975Z,48.03
2018-06-01T17:39:02.714Z,48.26
2018-06-01T17:41:35.116Z,48.45
2018-06-01T17:44:09.740Z,48.65
2018-06-01T17:46:54.417Z,49.14
2018-06-01T17:49:36.929Z,49.34
2018-06-01T17:52:20.267Z,49.41
2018-06-01T17:58:17.068Z,49.63
2018-06-01T18:00:51.320Z,49.81
2018-06-01T18:03:25.927Z,49.84
2018-06-01T18:06:04.705Z,49.89
2018-06-01T18:11:31.754Z,50.50
2018-06-01T18:16:53.892Z,50.22
2018-06-01T18:19:42.669Z,50.70
2018-06-01T18:22:15.544Z,50.95
2018-06-01T18:24:57.588Z,51.85
2018-06-01T18:27:28.305Z,52.26
2018-06-01T18:29:59.974Z,52.73
2018-06-01T18:32:32.760Z,53.49
2018-06-01T18:35:07.957Z,53.86
2018-06-01T18:37:46.612Z,53.96
2018-06-01T18:40:16.638Z,54.44
2018-06-01T18:42:45.793Z,54.57
2018-06-01T18:45:14.980Z,54.94
2018-06-01T18:47:51.631Z,55.49
2018-06-01T18:50:21.478Z,55.46
2018-06-01T18:52:54.493Z,56.06
2018-06-01T18:55:24.927Z,56.17
2018-06-01T18:57:55.422Z,56.60
2018-06-01T19:00:27.871Z,56.71
2018-06-01T19:02:56.368Z,56.61
2018-06-01T19:05:27.116Z,56.34
2018-06-01T19:08:00.066Z,56.39
2018-06-01T19:10:33.790Z,56.90
2018-06-01T19:13:01.583Z,56.97
2018-06-01T19:15:30.397Z,56.50
2018-06-01T19:18:01.147Z,56.71
2018-06-01T19:20:33.581Z,56.90
2018-06-01T19:23:05.224Z,56.96
2018-06-01T19:25:34.209Z,57.04
2018-06-01T19:28:02.964Z,57.08
2018-06-01T19:30:52.813Z,57.03
2018-06-01T19:33:21.631Z,57.20
2018-06-01T19:35:50.763Z,57.51
2018-06-01T19:38:18.998Z,57.71
2018-06-01T19:40:47.381Z,57.73
2018-06-01T19:43:17.455Z,57.99
2018-06-01T19:45:45.395Z,58.56
2018-06-01T19:48:13.379Z,58.48
2018-06-01T19:50:42.433Z,58.47
2018-06-01T19:53:23.620Z,58.94
2018-06-01T19:55:52.409Z,59.39
2018-06-01T19:58:22.291Z,59.56
2018-06-01T20:00:50.041Z,59.69
2018-06-01T20:03:20.329Z,59.90
2018-06-01T20:05:49.311Z,60.48
2018-06-01T20:08:17.076Z,60.27
2018-06-01T20:10:44.848Z,60.34
2018-06-01T20:13:15.006Z,60.55
2018-06-01T20:15:43.569Z,60.23
2018-06-01T20:18:12.273Z,60.48
2018-06-01T20:20:42.087Z,60.46
2018-06-01T20:23:12.224Z,60.40
2018-06-01T20:25:40.532Z,60.53
2018-06-01T20:28:09.133Z,60.67
2018-06-01T20:30:36.722Z,60.54
2018-06-01T20:33:04.478Z,61.04
2018-06-01T20:35:33.944Z,61.29
2018-06-01T20:38:02.738Z,61.22
2018-06-01T20:40:30.368Z,60.95
2018-06-01T20:42:58.049Z,61.06
2018-06-01T20:45:25.739Z,61.60
2018-06-01T20:47:53.410Z,61.89
2018-06-01T20:50:21.155Z,61.92
2018-06-01T20:52:49.079Z,62.25
2018-06-01T20:55:16.890Z,62.27
2018-06-01T20:57:44.463Z,61.75
2018-06-01T21:00:12.860Z,62.10
2018-06-01T21:02:40.443Z,62.45
2018-06-01T21:05:09.982Z,62.23
2018-06-01T21:07:38.357Z,62.36
2018-06-01T21:10:06.725Z,62.11
2018-06-01T21:12:34.329Z,62.16
2018-06-01T21:15:02.102Z,62.00
2018-06-01T21:17:29.794Z,61.68
2018-06-01T21:19:58.352Z,62.09
2018-06-01T21:22:25.997Z,62.31
2018-06-01T21:24:53.676Z,62.33
2018-06-01T21:27:21.332Z,62.78
2018-06-01T21:29:49.053Z,63.02
2018-06-01T21:32:17.384Z,62.84
2018-06-01T21:34:45.120Z,62.73
2018-06-01T21:37:13.114Z,62.84
2018-06-01T21:39:41.719Z,63.03
2018-06-01T21:42:09.432Z,63.12
2018-06-01T21:44:37.108Z,63.34
2018-06-01T21:47:04.775Z,63.27
2018-06-01T21:49:32.449Z,63.21
2018-06-01T21:52:00.140Z,63.51
2018-06-01T21:54:27.812Z,63.81
2018-06-01T21:56:55.480Z,64.25
2018-06-01T21:59:23.226Z,64.42
2018-06-01T22:01:50.899Z,64.28
2018-06-01T22:04:18.691Z,64.20
2018-06-01T22:06:46.397Z,63.97
2018-06-01T22:09:14.080Z,63.89
2018-06-01T22:11:41.927Z,63.84
2018-06-01T22:14:09.632Z,63.81
2018-06-01T22:16:37.498Z,64.13
2018-06-01T22:19:05.174Z,64.43
2018-06-01T22:21:32.765Z,64.62
2018-06-01T22:24:03.827Z,64.79
2018-06-01T22:26:31.536Z,64.86
2018-06-01T22:28:59.179Z,65.01
2018-06-01T22:31:26.762Z,65.21
2018-06-01T22:33:54.444Z,65.28
2018-06-01T22:36:22.076Z,65.37
2018-06-01T22:38:49.808Z,65.51
2018-06-01T22:41:17.946Z,65.92
2018-06-01T22:43:45.644Z,66.29
2018-06-01T22:46:13.505Z,66.54
2018-06-01T22:48:41.104Z,66.72
2018-06-01T22:51:12.219Z,66.67
2018-06-01T22:53:39.912Z,66.28
2018-06-01T22:56:07.601Z,66.56
2018-06-01T22:58:35.243Z,66.61
2018-06-01T23:01:02.899Z,66.63
2018-06-01T23:03:30.570Z,66.76
2018-06-01T23:05:58.218Z,66.68
2018-06-01T23:08:25.905Z,66.78
2018-06-01T23:10:53.580Z,67.10
2018-06-01T23:13:21.964Z,67.11
2018-06-01T23:15:49.500Z,67.73
2018-06-01T23:18:18.512Z,68.14
2018-06-01T23:20:46.053Z,68.28
2018-06-01T23:23:13.838Z,68.54
2018-06-01T23:25:41.430Z,68.31
2018-06-01T23:28:09.008Z,68.57
2018-06-01T23:30:36.704Z,68.62
2018-06-01T23:33:04.348Z,68.74
2018-06-01T23:35:32.012Z,68.98
2018-06-01T23:37:59.691Z,69.34
2018-06-01T23:40:27.350Z,69.03
2018-06-01T23:42:54.977Z,69.01
2018-06-01T23:45:22.788Z,68.92
2018-06-01T23:47:50.466Z,68.61
2018-06-01T23:50:18.079Z,68.68
2018-06-01T23:52:45.775Z,69.00
2018-06-01T23:55:13.409Z,69.33
2018-06-01T23:57:41.116Z,69.20
